Time;durP1;ratioP1;P1;durP2;ratioP2;P2;SDS_P1;SDS_P2;PMS_P1;PMS_P2;Temp;Humidity;BMP_temperature;BMP_pressure;BME280_temperature;BME280_humidity;BME280_pressure;Samples;Min_cycle;Max_cycle;Signal;HPM_P1;HPM_P2
2023/06/14 00:01:34;;;;;;;8.93;6.55;;;;;;;;;;5028507;28;20037;-60
2023/06/14 00:04:01;;;;;;;9.15;7.00;;;;;;;;;;5029733;28;20163;-61
2023/06/14 00:06:26;;;;;;;9.18;7.13;;;;;;;;;;5030409;28;20017;-60
2023/06/14 00:08:51;;;;;;;9.45;7.40;;;;;;;;;;5026846;28;20028;-62
2023/06/14 00:11:19;;;;;;;9.73;6.77;;;;;;;;;;5025127;28;20024;-60
2023/06/14 00:13:46;;;;;;;10.98;7.35;;;;;;;;;;5031999;28;20263;-59
2023/06/14 00:16:17;;;;;;;10.40;7.60;;;;;;;;;;5026712;28;20074;-61
2023/06/14 00:18:42;;;;;;;10.80;8.18;;;;;;;;;;5031799;28;20017;-61
2023/06/14 00:21:10;;;;;;;10.87;8.00;;;;;;;;;;5031572;28;20027;-61
2023/06/14 00:23:35;;;;;;;10.73;7.95;;;;;;;;;;5027040;28;20343;-60
2023/06/14 00:26:00;;;;;;;9.47;7.43;;;;;;;;;;5027356;28;20462;-61
2023/06/14 00:28:26;;;;;;;9.80;7.63;;;;;;;;;;5030870;28;20381;-61
2023/06/14 00:30:53;;;;;;;10.37;8.03;;;;;;;;;;5026629;28;20295;-61
2023/06/14 00:33:19;;;;;;;10.40;7.07;;;;;;;;;;5030594;28;20288;-61
2023/06/14 00:35:46;;;;;;;9.32;7.22;;;;;;;;;;5033837;28;20066;-61
2023/06/14 00:38:12;;;;;;;10.25;6.88;;;;;;;;;;5029420;28;20114;-60
2023/06/14 00:40:37;;;;;;;9.52;7.25;;;;;;;;;;5028215;28;20422;-61
2023/06/14 00:43:02;;;;;;;8.83;6.83;;;;;;;;;;5034064;28;20415;-61
2023/06/14 00:45:27;;;;;;;9.57;6.53;;;;;;;;;;5031691;28;20256;-60
2023/06/14 00:47:55;;;;;;;10.83;7.00;;;;;;;;;;5027439;28;20029;-60
2023/06/14 00:50:20;;;;;;;9.48;6.72;;;;;;;;;;5028911;28;20969;-61
2023/06/14 00:52:46;;;;;;;8.90;6.75;;;;;;;;;;5036522;28;20112;-60
2023/06/14 00:55:11;;;;;;;9.70;6.93;;;;;;;;;;5031795;28;20025;-61
2023/06/14 00:57:37;;;;;;;9.43;6.75;;;;;;;;;;5031141;28;20021;-60
2023/06/14 01:00:04;;;;;;;9.32;6.63;;;;;;;;;;5025721;28;20033;-60
2023/06/14 01:02:31;;;;;;;9.40;6.07;;;;;;;;;;5031132;28;20021;-61
2023/06/14 01:04:57;;;;;;;7.97;6.00;;;;;;;;;;5029301;28;20032;-61
2023/06/14 01:07:26;;;;;;;8.88;6.53;;;;;;;;;;5030696;28;20021;-61
2023/06/14 01:09:51;;;;;;;;;;;;;;;;;;5029778;28;20081;-62
2023/06/14 01:12:17;;;;;;;7.85;5.55;;;;;;;;;;5030592;28;19920;-61
2023/06/14 01:14:42;;;;;;;8.90;5.77;;;;;;;;;;5033513;28;20547;-61
2023/06/14 01:17:15;;;;;;;9.55;5.28;;;;;;;;;;5031367;28;20424;-62
2023/06/14 01:19:42;;;;;;;8.93;5.90;;;;;;;;;;5027700;28;20060;-60
2023/06/14 01:22:07;;;;;;;10.27;7.47;;;;;;;;;;5030218;28;20025;-61
2023/06/14 01:24:34;;;;;;;9.98;7.93;;;;;;;;;;5031991;28;20029;-60
2023/06/14 01:27:00;;;;;;;11.75;9.15;;;;;;;;;;5032444;28;20021;-60
2023/06/14 01:29:27;;;;;;;15.82;12.25;;;;;;;;;;5030104;28;20452;-60
2023/06/14 01:31:55;;;;;;;16.30;12.95;;;;;;;;;;5028904;28;20024;-60
2023/06/14 01:34:21;;;;;;;18.65;14.70;;;;;;;;;;5028417;28;20048;-61
2023/06/14 01:36:47;;;;;;;18.33;14.50;;;;;;;;;;5030072;28;20152;-60
2023/06/14 01:39:16;;;;;;;18.25;14.93;;;;;;;;;;5025971;28;20029;-61
2023/06/14 01:41:43;;;;;;;17.88;14.77;;;;;;;;;;5029445;28;20040;-60
2023/06/14 01:44:10;;;;;;;17.42;14.80;;;;;;;;;;5023769;28;20025;-60
2023/06/14 01:46:36;;;;;;;16.55;14.25;;;;;;;;;;5033398;28;20559;-61
2023/06/14 01:49:02;;;;;;;18.15;14.35;;;;;;;;;;5034177;28;20028;-61
2023/06/14 01:51:27;;;;;;;16.05;13.43;;;;;;;;;;5027988;28;20061;-62
2023/06/14 01:53:55;;;;;;;16.50;14.20;;;;;;;;;;5030960;28;20766;-61
2023/06/14 01:56:22;;;;;;;16.92;13.65;;;;;;;;;;5029763;28;20853;-60
2023/06/14 01:58:48;;;;;;;16.35;13.70;;;;;;;;;;5030134;28;20047;-60
2023/06/14 02:01:16;;;;;;;15.38;12.70;;;;;;;;;;5022011;28;20452;-58
2023/06/14 02:03:42;;;;;;;14.77;11.93;;;;;;;;;;5027749;28;20025;-61
2023/06/14 02:06:07;;;;;;;12.98;10.50;;;;;;;;;;5031177;28;20125;-61
2023/06/14 02:08:32;;;;;;;13.13;10.10;;;;;;;;;;5035707;28;20021;-60
2023/06/14 02:11:00;;;;;;;12.68;9.98;;;;;;;;;;5032360;28;20390;-60
2023/06/14 02:13:27;;;;;;;12.90;9.05;;;;;;;;;;5027699;28;20108;-60
2023/06/14 02:15:54;;;;;;;11.30;8.55;;;;;;;;;;5028407;28;20495;-61
2023/06/14 02:18:19;;;;;;;11.98;8.57;;;;;;;;;;5029644;28;20539;-60
2023/06/14 02:20:44;;;;;;;11.63;8.98;;;;;;;;;;5036567;28;20024;-60
2023/06/14 02:23:10;;;;;;;10.47;7.77;;;;;;;;;;5026894;28;20034;-61
2023/06/14 02:25:35;;;;;;;10.48;7.45;;;;;;;;;;5028627;28;20275;-60
2023/06/14 02:28:00;;;;;;;9.27;7.20;;;;;;;;;;5031240;28;20025;-60
2023/06/14 02:30:26;;;;;;;8.60;6.03;;;;;;;;;;5027972;28;20103;-59
2023/06/14 02:32:51;;;;;;;9.80;6.38;;;;;;;;;;5036866;28;20374;-60
2023/06/14 02:35:16;;;;;;;7.87;5.77;;;;;;;;;;5028460;28;20017;-60
2023/06/14 02:37:42;;;;;;;8.97;6.43;;;;;;;;;;5029701;28;20813;-60
2023/06/14 02:40:10;;;;;;;8.93;6.68;;;;;;;;;;5025857;28;20280;-60
2023/06/14 02:42:35;;;;;;;10.60;7.00;;;;;;;;;;5033470;28;20032;-62
2023/06/14 02:45:02;;;;;;;10.53;7.33;;;;;;;;;;5021563;28;20868;-60
2023/06/14 02:47:27;;;;;;;10.82;7.30;;;;;;;;;;5029665;28;20282;-59
2023/06/14 02:49:52;;;;;;;10.35;7.63;;;;;;;;;;5032952;28;20371;-61
2023/06/14 02:52:18;;;;;;;9.95;7.00;;;;;;;;;;5033121;28;20490;-61
2023/06/14 02:54:47;;;;;;;11.40;7.57;;;;;;;;;;5035204;28;20036;-61
2023/06/14 02:57:12;;;;;;;11.32;8.45;;;;;;;;;;5036341;28;20017;-61
2023/06/14 02:59:37;;;;;;;10.25;8.38;;;;;;;;;;5030888;28;20031;-61
2023/06/14 03:02:05;;;;;;;11.20;8.07;;;;;;;;;;5028883;28;20170;-60
2023/06/14 03:04:34;;;;;;;11.73;9.10;;;;;;;;;;5029421;28;20068;-60
2023/06/14 03:07:08;;;;;;;11.23;8.63;;;;;;;;;;5028465;28;20025;-61
2023/06/14 03:09:34;;;;;;;10.82;8.50;;;;;;;;;;5030888;28;20025;-60
2023/06/14 03:12:02;;;;;;;11.40;8.57;;;;;;;;;;5061066;28;20037;-59
2023/06/14 03:14:29;;;;;;;11.98;8.60;;;;;;;;;;5030953;28;20021;-60
2023/06/14 03:16:56;;;;;;;12.63;8.88;;;;;;;;;;5035197;28;20116;-60
2023/06/14 03:19:21;;;;;;;11.43;9.05;;;;;;;;;;5035849;28;20649;-60
2023/06/14 03:21:47;;;;;;;11.05;8.05;;;;;;;;;;5030502;28;20024;-62
2023/06/14 03:24:12;;;;;;;10.52;8.18;;;;;;;;;;5022409;28;20082;-64
2023/06/14 03:26:40;;;;;;;11.27;8.40;;;;;;;;;;5040222;28;20028;-61
2023/06/14 03:29:08;;;;;;;11.75;8.43;;;;;;;;;;5035528;28;20266;-62
2023/06/14 03:31:34;;;;;;;10.95;8.68;;;;;;;;;;5031610;28;20041;-61
2023/06/14 03:34:00;;;;;;;11.13;8.63;;;;;;;;;;5034081;28;20047;-61
2023/06/14 03:36:25;;;;;;;12.52;8.20;;;;;;;;;;5028431;28;20460;-61
2023/06/14 03:38:50;;;;;;;12.10;8.65;;;;;;;;;;5038045;28;20021;-60
2023/06/14 03:41:16;;;;;;;11.70;8.50;;;;;;;;;;5038062;28;21059;-61
2023/06/14 03:43:41;;;;;;;12.67;9.00;;;;;;;;;;5029402;28;20282;-61
2023/06/14 03:46:09;;;;;;;11.00;8.10;;;;;;;;;;5038258;28;20248;-59
2023/06/14 03:48:34;;;;;;;11.90;9.07;;;;;;;;;;5029950;28;20037;-60
2023/06/14 03:51:02;;;;;;;10.43;8.37;;;;;;;;;;5035827;28;20035;-61
2023/06/14 03:53:29;;;;;;;11.40;8.88;;;;;;;;;;5027238;28;20028;-61
2023/06/14 03:55:59;;;;;;;12.13;8.57;;;;;;;;;;5031322;28;20013;-60
2023/06/14 03:58:25;;;;;;;11.15;8.57;;;;;;;;;;5021584;28;20478;-60
2023/06/14 04:00:50;;;;;;;12.30;8.53;;;;;;;;;;5030955;28;20032;-60
2023/06/14 04:03:15;;;;;;;11.60;8.63;;;;;;;;;;5030427;28;20341;-61
2023/06/14 04:05:44;;;;;;;11.57;8.80;;;;;;;;;;5033047;28;20342;-60
2023/06/14 04:08:10;;;;;;;11.87;9.17;;;;;;;;;;5029696;28;20029;-61
2023/06/14 04:10:35;;;;;;;12.18;9.48;;;;;;;;;;5032593;28;20094;-59
2023/06/14 04:13:00;;;;;;;12.70;8.75;;;;;;;;;;5032301;28;20071;-61
2023/06/14 04:15:28;;;;;;;11.70;9.17;;;;;;;;;;5028986;28;20040;-61
2023/06/14 04:17:57;;;;;;;12.02;9.10;;;;;;;;;;5031844;28;20262;-60
2023/06/14 04:20:22;;;;;;;11.77;9.50;;;;;;;;;;5035779;28;20053;-60
2023/06/14 04:22:50;;;;;;;11.20;8.85;;;;;;;;;;5031900;28;20103;-60
2023/06/14 04:25:15;;;;;;;12.07;8.18;;;;;;;;;;5031645;28;20021;-62
2023/06/14 04:27:43;;;;;;;11.38;8.77;;;;;;;;;;5026420;28;20051;-62
2023/06/14 04:30:09;;;;;;;11.10;8.43;;;;;;;;;;5031772;28;20952;-62
2023/06/14 04:32:39;;;;;;;11.32;8.27;;;;;;;;;;5036017;28;20028;-61
2023/06/14 04:35:06;;;;;;;12.00;8.90;;;;;;;;;;5031158;28;20124;-60
2023/06/14 04:37:34;;;;;;;11.05;8.10;;;;;;;;;;5031499;28;20104;-61
2023/06/14 04:40:06;;;;;;;10.95;8.38;;;;;;;;;;5030789;28;20032;-60
2023/06/14 04:42:36;;;;;;;10.77;8.73;;;;;;;;;;5029300;28;20120;-60
2023/06/14 04:45:04;;;;;;;10.32;7.90;;;;;;;;;;5025973;28;20843;-60
2023/06/14 04:47:32;;;;;;;12.90;8.90;;;;;;;;;;5029794;28;20038;-61
2023/06/14 04:49:57;;;;;;;10.13;7.82;;;;;;;;;;5031156;28;20798;-61
2023/06/14 04:52:26;;;;;;;10.52;8.32;;;;;;;;;;5035163;28;20013;-60
2023/06/14 04:54:52;;;;;;;10.98;8.52;;;;;;;;;;5028011;28;20155;-60
2023/06/14 04:57:22;;;;;;;10.15;7.88;;;;;;;;;;5039910;28;20501;-61
2023/06/14 04:59:54;;;;;;;;;;;;;;;;;;5029017;28;20025;-61
2023/06/14 05:02:23;;;;;;;12.73;8.70;;;;;;;;;;5031437;28;20055;-60
2023/06/14 05:04:48;;;;;;;11.95;8.45;;;;;;;;;;5027633;28;20085;-59
2023/06/14 05:07:14;;;;;;;10.77;7.30;;;;;;;;;;5027073;28;20811;-60
2023/06/14 05:09:39;;;;;;;10.48;8.20;;;;;;;;;;5029038;28;20091;-60
2023/06/14 05:12:08;;;;;;;9.40;7.05;;;;;;;;;;5028554;28;20032;-61
2023/06/14 05:14:33;;;;;;;9.90;7.25;;;;;;;;;;5025517;28;20041;-60
2023/06/14 05:16:59;;;;;;;9.98;7.57;;;;;;;;;;5024154;28;20536;-60
2023/06/14 05:19:24;;;;;;;9.75;6.82;;;;;;;;;;5034603;28;20174;-60
2023/06/14 05:21:50;;;;;;;11.23;7.38;;;;;;;;;;5018085;28;20118;-62
2023/06/14 05:24:17;;;;;;;8.88;6.65;;;;;;;;;;5007608;28;20025;-60
2023/06/14 05:26:43;;;;;;;8.45;6.82;;;;;;;;;;5030151;28;20024;-60
2023/06/14 05:29:08;;;;;;;9.70;6.78;;;;;;;;;;5028855;28;20433;-60
2023/06/14 05:31:33;;;;;;;8.95;6.78;;;;;;;;;;5025091;28;20049;-57
2023/06/14 05:34:00;;;;;;;9.48;7.07;;;;;;;;;;5032970;28;20045;-60
2023/06/14 05:36:27;;;;;;;7.53;5.22;;;;;;;;;;5024321;28;20785;-59
2023/06/14 05:38:59;;;;;;;8.38;4.72;;;;;;;;;;5029782;28;20573;-61
2023/06/14 05:41:28;;;;;;;7.13;4.40;;;;;;;;;;5033312;28;20535;-60
2023/06/14 05:43:56;;;;;;;9.33;4.73;;;;;;;;;;5025724;28;20064;-60
2023/06/14 05:46:24;;;;;;;6.88;4.68;;;;;;;;;;5029095;28;20356;-60
2023/06/14 05:48:52;;;;;;;6.70;4.55;;;;;;;;;;5027490;28;20045;-60
2023/06/14 05:51:20;;;;;;;7.53;4.15;;;;;;;;;;5026165;28;20036;-60
2023/06/14 05:53:48;;;;;;;6.30;4.30;;;;;;;;;;5031654;28;20529;-62
2023/06/14 05:56:14;;;;;;;6.60;4.43;;;;;;;;;;5024935;28;20025;-59
2023/06/14 05:58:40;;;;;;;6.93;4.43;;;;;;;;;;5022452;28;20035;-60
2023/06/14 06:01:05;;;;;;;6.78;4.57;;;;;;;;;;5027813;28;21183;-60
2023/06/14 06:03:31;;;;;;;6.75;4.07;;;;;;;;;;5026730;28;20025;-60
2023/06/14 06:05:56;;;;;;;6.13;3.67;;;;;;;;;;5025633;28;20025;-61
2023/06/14 06:08:26;;;;;;;6.50;4.38;;;;;;;;;;5021086;28;20280;-61
2023/06/14 06:10:52;;;;;;;7.68;4.60;;;;;;;;;;5028885;28;20110;-61
2023/06/14 06:13:22;;;;;;;6.73;4.17;;;;;;;;;;5025662;28;20033;-60
2023/06/14 06:15:48;;;;;;;7.25;4.03;;;;;;;;;;5026522;28;20368;-60
2023/06/14 06:18:15;;;;;;;6.25;3.95;;;;;;;;;;5031842;28;20029;-60
2023/06/14 06:20:43;;;;;;;6.55;4.20;;;;;;;;;;5028606;28;20025;-61
2023/06/14 06:23:09;;;;;;;6.15;3.85;;;;;;;;;;5022726;28;20033;-61
2023/06/14 06:25:37;;;;;;;6.28;3.90;;;;;;;;;;5030956;28;20033;-59
2023/06/14 06:28:07;;;;;;;6.75;4.28;;;;;;;;;;5035579;28;20013;-60
2023/06/14 06:30:32;;;;;;;6.55;4.10;;;;;;;;;;5031138;28;20626;-61
2023/06/14 06:32:57;;;;;;;7.03;3.92;;;;;;;;;;5038843;28;20037;-61
2023/06/14 06:35:23;;;;;;;6.32;3.80;;;;;;;;;;5029208;28;20049;-61
2023/06/14 06:37:48;;;;;;;6.03;4.00;;;;;;;;;;5032181;28;20024;-60
2023/06/14 06:40:13;;;;;;;6.85;4.30;;;;;;;;;;5032806;28;20259;-60
2023/06/14 06:42:39;;;;;;;5.63;3.53;;;;;;;;;;5033655;28;20033;-61
2023/06/14 06:45:05;;;;;;;5.88;3.70;;;;;;;;;;5029418;28;20055;-60
2023/06/14 06:47:32;;;;;;;5.97;3.75;;;;;;;;;;5030639;28;20028;-61
2023/06/14 06:49:58;;;;;;;6.28;3.80;;;;;;;;;;5036002;28;20017;-60
2023/06/14 06:52:23;;;;;;;5.90;3.90;;;;;;;;;;5032491;28;20029;-60
2023/06/14 06:54:49;;;;;;;6.00;3.53;;;;;;;;;;5028827;28;20486;-59
2023/06/14 06:57:14;;;;;;;5.60;3.60;;;;;;;;;;5033837;28;20024;-61
2023/06/14 06:59:42;;;;;;;7.20;4.20;;;;;;;;;;5030401;28;20344;-61
2023/06/14 07:02:07;;;;;;;6.43;3.67;;;;;;;;;;5029867;28;20252;-60
2023/06/14 07:04:32;;;;;;;6.95;3.80;;;;;;;;;;5027097;28;20056;-61
2023/06/14 07:07:00;;;;;;;7.03;3.22;;;;;;;;;;5042188;28;20435;-60
2023/06/14 07:09:25;;;;;;;7.50;3.80;;;;;;;;;;5030004;28;20070;-60
2023/06/14 07:11:53;;;;;;;6.37;3.30;;;;;;;;;;5032359;28;20017;-60
2023/06/14 07:14:18;;;;;;;6.63;3.40;;;;;;;;;;5029196;28;20263;-61
2023/06/14 07:16:44;;;;;;;6.15;3.67;;;;;;;;;;5031897;28;20020;-59
2023/06/14 07:19:10;;;;;;;8.00;3.47;;;;;;;;;;5032281;28;20033;-60
2023/06/14 07:21:37;;;;;;;5.60;3.22;;;;;;;;;;5029139;28;20029;-60
2023/06/14 07:24:02;;;;;;;5.90;3.25;;;;;;;;;;5032362;28;20024;-61
2023/06/14 07:26:28;;;;;;;6.35;3.28;;;;;;;;;;5026523;28;20593;-62
2023/06/14 07:28:55;;;;;;;6.37;3.40;;;;;;;;;;5035670;28;20107;-61
2023/06/14 07:31:21;;;;;;;5.07;2.80;;;;;;;;;;5030488;28;20318;-61
2023/06/14 07:33:46;;;;;;;5.82;2.83;;;;;;;;;;5035722;28;20670;-60
2023/06/14 07:36:11;;;;;;;6.38;2.97;;;;;;;;;;5033870;28;20075;-60
2023/06/14 07:38:36;;;;;;;6.00;2.77;;;;;;;;;;5027313;28;20033;-60
2023/06/14 07:41:02;;;;;;;4.70;2.60;;;;;;;;;;5035678;28;20813;-60
2023/06/14 07:43:27;;;;;;;5.13;2.60;;;;;;;;;;5029063;28;20279;-61
2023/06/14 07:45:52;;;;;;;5.70;2.83;;;;;;;;;;5040121;28;20021;-60
2023/06/14 07:48:18;;;;;;;4.60;2.55;;;;;;;;;;5031020;28;20568;-61
2023/06/14 07:50:45;;;;;;;4.60;2.53;;;;;;;;;;5029408;28;21411;-61
2023/06/14 07:53:11;;;;;;;5.07;2.40;;;;;;;;;;5028516;28;20028;-59
2023/06/14 07:55:39;;;;;;;4.97;2.40;;;;;;;;;;5033990;28;20025;-60
2023/06/14 07:58:08;;;;;;;5.00;2.20;;;;;;;;;;5026211;28;20333;-59
2023/06/14 08:00:35;;;;;;;5.05;2.42;;;;;;;;;;5032032;28;20150;-61
2023/06/14 08:03:01;;;;;;;4.57;2.10;;;;;;;;;;5035809;28;20017;-59
2023/06/14 08:05:27;;;;;;;4.93;2.58;;;;;;;;;;5029462;28;20079;-60
2023/06/14 08:07:52;;;;;;;5.78;3.30;;;;;;;;;;5030031;28;20523;-61
2023/06/14 08:10:18;;;;;;;5.78;3.42;;;;;;;;;;5032297;28;20017;-60
2023/06/14 08:12:43;;;;;;;5.35;3.08;;;;;;;;;;5034274;28;20108;-60
2023/06/14 08:15:09;;;;;;;6.18;3.00;;;;;;;;;;5028624;28;20156;-60
2023/06/14 08:17:34;;;;;;;6.45;3.00;;;;;;;;;;5031550;28;20020;-61
2023/06/14 08:20:00;;;;;;;5.25;2.95;;;;;;;;;;5030229;28;20123;-58
2023/06/14 08:22:27;;;;;;;6.47;3.00;;;;;;;;;;5029814;28;20379;-60
2023/06/14 08:24:54;;;;;;;5.63;3.45;;;;;;;;;;5030282;28;20028;-60
2023/06/14 08:27:19;;;;;;;5.13;3.15;;;;;;;;;;5031763;28;20111;-60
2023/06/14 08:29:44;;;;;;;5.93;3.20;;;;;;;;;;5034310;28;20052;-59
2023/06/14 08:32:10;;;;;;;6.05;2.90;;;;;;;;;;5022258;28;20642;-61
2023/06/14 08:34:35;;;;;;;6.65;2.88;;;;;;;;;;5035574;28;20660;-61
2023/06/14 08:37:03;;;;;;;6.20;3.07;;;;;;;;;;5034155;28;21102;-60
2023/06/14 08:39:28;;;;;;;4.90;2.75;;;;;;;;;;5020647;28;20052;-60
2023/06/14 08:41:54;;;;;;;5.13;2.60;;;;;;;;;;5033811;28;20341;-60
2023/06/14 08:44:22;;;;;;;4.60;2.50;;;;;;;;;;5027724;28;20021;-61
2023/06/14 08:46:50;;;;;;;4.68;2.60;;;;;;;;;;5035638;28;20048;-60
2023/06/14 08:49:16;;;;;;;4.63;2.63;;;;;;;;;;5028911;28;20500;-60
2023/06/14 08:51:43;;;;;;;6.22;2.42;;;;;;;;;;5029782;28;20109;-61
2023/06/14 08:54:11;;;;;;;6.38;2.33;;;;;;;;;;5033044;28;20024;-59
2023/06/14 08:56:37;;;;;;;5.70;2.17;;;;;;;;;;5028229;28;20661;-61
2023/06/14 08:59:06;;;;;;;4.22;2.20;;;;;;;;;;5031453;28;20036;-60
2023/06/14 09:01:38;;;;;;;5.80;2.63;;;;;;;;;;5025421;28;20297;-60
2023/06/14 09:04:05;;;;;;;4.72;2.70;;;;;;;;;;5038840;28;20320;-60
2023/06/14 09:06:32;;;;;;;5.93;2.70;;;;;;;;;;5031308;28;20121;-60
2023/06/14 09:08:58;;;;;;;6.07;2.47;;;;;;;;;;5032309;28;20021;-60
2023/06/14 09:11:23;;;;;;;5.47;2.33;;;;;;;;;;5031854;28;20538;-61
2023/06/14 09:13:49;;;;;;;5.30;2.53;;;;;;;;;;5027555;28;20028;-59
2023/06/14 09:16:14;;;;;;;4.72;2.38;;;;;;;;;;5028382;28;20411;-60
2023/06/14 09:18:44;;;;;;;7.03;2.37;;;;;;;;;;5026837;28;20467;-60
2023/06/14 09:21:10;;;;;;;5.88;2.47;;;;;;;;;;5034234;28;20281;-61
2023/06/14 09:23:39;;;;;;;5.00;2.30;;;;;;;;;;5026126;28;20669;-60
2023/06/14 09:26:11;;;;;;;6.88;2.47;;;;;;;;;;5031921;28;20019;-60
2023/06/14 09:28:41;;;;;;;6.40;2.38;;;;;;;;;;5046411;28;20166;-61
2023/06/14 09:31:08;;;;;;;5.75;2.30;;;;;;;;;;5027761;28;20041;-61
2023/06/14 09:33:33;;;;;;;4.72;2.42;;;;;;;;;;5029807;28;20380;-58
2023/06/14 09:36:01;;;;;;;4.57;2.22;;;;;;;;;;5033491;28;20021;-61
2023/06/14 09:38:26;;;;;;;6.72;2.88;;;;;;;;;;5028223;28;20022;-60
2023/06/14 09:40:51;;;;;;;4.93;2.17;;;;;;;;;;5030270;28;20106;-60
2023/06/14 09:43:17;;;;;;;5.25;2.38;;;;;;;;;;5023642;28;20059;-60
2023/06/14 09:45:45;;;;;;;6.18;2.42;;;;;;;;;;5036348;28;20111;-60
2023/06/14 09:48:11;;;;;;;6.35;2.50;;;;;;;;;;5034749;28;20013;-61
2023/06/14 09:50:36;;;;;;;5.07;2.67;;;;;;;;;;5032686;28;20087;-59
2023/06/14 09:53:11;;;;;;;5.10;2.95;;;;;;;;;;5023886;28;20907;-60
2023/06/14 09:55:37;;;;;;;5.30;2.80;;;;;;;;;;5023048;28;20025;-59
2023/06/14 09:58:06;;;;;;;4.93;2.72;;;;;;;;;;5035105;28;20017;-61
2023/06/14 10:00:33;;;;;;;5.88;3.25;;;;;;;;;;5039527;28;20146;-62
2023/06/14 10:03:01;;;;;;;5.30;3.03;;;;;;;;;;5037841;28;20043;-59
2023/06/14 10:05:28;;;;;;;4.90;2.70;;;;;;;;;;5036654;28;20021;-60
2023/06/14 10:07:57;;;;;;;6.50;3.20;;;;;;;;;;5033348;28;20025;-60
2023/06/14 10:10:25;;;;;;;5.18;3.13;;;;;;;;;;5029006;28;20028;-60
2023/06/14 10:12:50;;;;;;;5.53;2.80;;;;;;;;;;5038460;28;20417;-60
2023/06/14 10:15:36;;;;;;;4.95;3.00;;;;;;;;;;5065534;28;20025;-59
2023/06/14 10:18:07;;;;;;;4.95;2.95;;;;;;;;;;5033570;28;20035;-60
2023/06/14 10:20:45;;;;;;;5.32;2.58;;;;;;;;;;5027673;28;20067;-60
2023/06/14 10:23:13;;;;;;;5.10;3.00;;;;;;;;;;5039653;28;20507;-59
2023/06/14 10:25:38;;;;;;;5.35;3.33;;;;;;;;;;5029841;28;20020;-60
2023/06/14 10:28:15;;;;;;;5.28;3.10;;;;;;;;;;5037364;28;20021;-59
2023/06/14 10:31:00;;;;;;;5.95;3.08;;;;;;;;;;5029091;28;20040;-59
2023/06/14 10:33:28;;;;;;;6.68;3.08;;;;;;;;;;5025529;28;20444;-59
2023/06/14 10:36:12;;;;;;;5.32;3.03;;;;;;;;;;5030980;28;20052;-60
2023/06/14 10:38:40;;;;;;;5.43;3.00;;;;;;;;;;5029191;28;21146;-60
2023/06/14 10:41:06;;;;;;;5.30;3.03;;;;;;;;;;5034220;28;20090;-59
2023/06/14 10:43:34;;;;;;;5.97;3.13;;;;;;;;;;5029727;28;20024;-59
2023/06/14 10:46:18;;;;;;;5.80;3.28;;;;;;;;;;5033646;28;20029;-59
2023/06/14 10:48:46;;;;;;;5.30;3.08;;;;;;;;;;5034166;28;20013;-60
2023/06/14 10:51:20;;;;;;;6.82;3.30;;;;;;;;;;5037106;28;20818;-59
2023/06/14 10:53:49;;;;;;;7.00;3.50;;;;;;;;;;5031098;28;20018;-59
2023/06/14 10:56:30;;;;;;;5.72;3.08;;;;;;;;;;5033560;28;20754;-60
2023/06/14 10:58:59;;;;;;;5.40;3.45;;;;;;;;;;5030651;28;20104;-60
2023/06/14 11:01:38;;;;;;;6.03;3.17;;;;;;;;;;5030615;28;20147;-60
2023/06/14 11:04:03;;;;;;;;;;;;;;;;;;5028945;28;20021;-59
2023/06/14 11:06:38;;;;;;;7.13;3.67;;;;;;;;;;5033089;28;20294;-60
2023/06/14 11:09:13;;;;;;;5.93;3.65;;;;;;;;;;5028468;28;20025;-59
2023/06/14 11:11:44;;;;;;;5.65;3.70;;;;;;;;;;5033181;28;20032;-60
2023/06/14 11:14:09;;;;;;;4.80;3.00;;;;;;;;;;5028906;28;20039;-60
2023/06/14 11:16:35;;;;;;;5.55;3.30;;;;;;;;;;5031983;28;20021;-60
2023/06/14 11:19:04;;;;;;;5.43;2.90;;;;;;;;;;5030734;28;20502;-59
2023/06/14 11:21:33;;;;;;;5.75;3.25;;;;;;;;;;5026516;28;20256;-59
2023/06/14 11:24:00;;;;;;;7.70;3.35;;;;;;;;;;5025934;28;20398;-61
2023/06/14 11:26:26;;;;;;;5.53;3.30;;;;;;;;;;5033154;28;20029;-60
2023/06/14 11:28:54;;;;;;;6.65;3.63;;;;;;;;;;5027397;28;20514;-59
2023/06/14 11:31:20;;;;;;;6.20;3.43;;;;;;;;;;5027384;28;20061;-61
2023/06/14 11:33:49;;;;;;;6.53;3.27;;;;;;;;;;5027806;28;20614;-59
2023/06/14 11:36:14;;;;;;;;;;;;;;;;;;5032165;28;20274;-59
2023/06/14 11:38:44;;;;;;;6.50;3.95;;;;;;;;;;5036295;28;19909;-59
2023/06/14 11:41:12;;;;;;;6.47;3.53;;;;;;;;;;5034442;28;20016;-60
2023/06/14 11:43:37;;;;;;;7.28;3.45;;;;;;;;;;5031210;28;20025;-61
2023/06/14 11:46:02;;;;;;;6.45;3.72;;;;;;;;;;5032284;28;20020;-60
2023/06/14 11:48:42;;;;;;;6.20;3.83;;;;;;;;;;5028852;28;20047;-60
2023/06/14 11:51:08;;;;;;;5.05;3.28;;;;;;;;;;5028391;28;20247;-60
2023/06/14 11:53:35;;;;;;;10.20;3.92;;;;;;;;;;5026898;28;20032;-59
2023/06/14 11:56:01;;;;;;;5.95;3.60;;;;;;;;;;5032438;28;20036;-58
2023/06/14 11:58:27;;;;;;;6.60;3.70;;;;;;;;;;5026359;28;20685;-60
2023/06/14 12:00:53;;;;;;;7.50;4.00;;;;;;;;;;5030747;28;20108;-60
2023/06/14 12:03:22;;;;;;;6.28;3.90;;;;;;;;;;5027732;28;20020;-60
2023/06/14 12:05:47;;;;;;;6.50;3.95;;;;;;;;;;5029280;28;20034;-60
2023/06/14 12:08:17;;;;;;;6.97;3.80;;;;;;;;;;5030619;28;20047;-60
2023/06/14 12:10:45;;;;;;;6.72;3.50;;;;;;;;;;5028535;28;20398;-60
2023/06/14 12:13:13;;;;;;;5.80;3.83;;;;;;;;;;5036455;28;20048;-59
2023/06/14 12:15:38;;;;;;;6.70;3.90;;;;;;;;;;5037315;28;20307;-60
2023/06/14 12:18:08;;;;;;;6.53;3.92;;;;;;;;;;5025992;28;20448;-60
2023/06/14 12:20:36;;;;;;;7.00;3.58;;;;;;;;;;5026722;28;20020;-60
2023/06/14 12:23:04;;;;;;;6.75;3.45;;;;;;;;;;5035671;28;20433;-61
2023/06/14 12:25:33;;;;;;;6.82;3.20;;;;;;;;;;5029345;28;20297;-58
2023/06/14 12:27:59;;;;;;;7.95;3.22;;;;;;;;;;5029586;28;20375;-60
2023/06/14 12:30:25;;;;;;;5.82;3.65;;;;;;;;;;5021675;28;20052;-60
2023/06/14 12:32:51;;;;;;;7.53;4.10;;;;;;;;;;5032668;28;20029;-59
2023/06/14 12:35:17;;;;;;;6.38;3.60;;;;;;;;;;5033936;28;20379;-59
2023/06/14 12:37:42;;;;;;;9.02;3.78;;;;;;;;;;5029276;28;20016;-60
2023/06/14 12:40:11;;;;;;;5.25;3.45;;;;;;;;;;5041956;28;20024;-60
2023/06/14 12:42:36;;;;;;;6.50;3.60;;;;;;;;;;5024420;28;20025;-60
2023/06/14 12:45:02;;;;;;;5.88;3.92;;;;;;;;;;5032474;28;20047;-60
2023/06/14 12:47:28;;;;;;;5.78;3.38;;;;;;;;;;5026443;28;20028;-60
2023/06/14 12:49:53;;;;;;;7.00;3.30;;;;;;;;;;5032660;28;20454;-60
2023/06/14 12:52:18;;;;;;;6.07;3.30;;;;;;;;;;5028848;28;20101;-60
2023/06/14 12:54:43;;;;;;;7.40;3.57;;;;;;;;;;5032427;28;20267;-60
2023/06/14 12:57:11;;;;;;;6.38;3.53;;;;;;;;;;5036082;28;20787;-59
2023/06/14 12:59:39;;;;;;;5.78;3.72;;;;;;;;;;5021474;28;20017;-60
2023/06/14 13:02:14;;;;;;;7.05;3.67;;;;;;;;;;5035548;28;20025;-60
2023/06/14 13:04:42;;;;;;;8.23;3.88;;;;;;;;;;5032551;28;20380;-60
2023/06/14 13:07:07;;;;;;;6.32;3.83;;;;;;;;;;5027963;28;20026;-59
2023/06/14 13:09:33;;;;;;;6.55;3.95;;;;;;;;;;5029013;28;20072;-60
2023/06/14 13:11:58;;;;;;;7.20;3.90;;;;;;;;;;5027993;28;20025;-60
2023/06/14 13:14:26;;;;;;;7.67;4.20;;;;;;;;;;5037023;28;20040;-60
2023/06/14 13:16:51;;;;;;;7.88;3.88;;;;;;;;;;5031947;28;20032;-60
2023/06/14 13:19:19;;;;;;;5.90;3.80;;;;;;;;;;5033241;28;20102;-60
2023/06/14 13:21:44;;;;;;;6.50;3.75;;;;;;;;;;5026000;28;20025;-60
2023/06/14 13:24:10;;;;;;;7.43;4.10;;;;;;;;;;5031348;28;20365;-60
2023/06/14 13:26:35;;;;;;;8.23;4.27;;;;;;;;;;5033464;28;20021;-60
2023/06/14 13:29:00;;;;;;;5.70;3.47;;;;;;;;;;5024251;28;20533;-60
2023/06/14 13:31:25;;;;;;;6.47;3.85;;;;;;;;;;5043243;28;20132;-60
2023/06/14 13:33:53;;;;;;;9.43;3.87;;;;;;;;;;5030128;28;20088;-60
2023/06/14 13:36:18;;;;;;;8.18;3.83;;;;;;;;;;5025033;28;20418;-60
2023/06/14 13:38:46;;;;;;;6.63;4.10;;;;;;;;;;5027930;28;20025;-59
2023/06/14 13:41:11;;;;;;;7.88;3.90;;;;;;;;;;5031599;28;20263;-60
2023/06/14 13:43:41;;;;;;;6.00;3.87;;;;;;;;;;5032190;28;20412;-60
2023/06/14 13:46:09;;;;;;;6.32;3.80;;;;;;;;;;5057398;28;20259;-60
2023/06/14 13:48:34;;;;;;;7.45;3.80;;;;;;;;;;5033010;28;20025;-59
2023/06/14 13:51:03;;;;;;;8.07;3.57;;;;;;;;;;5028297;28;20040;-60
2023/06/14 13:53:29;;;;;;;6.78;4.00;;;;;;;;;;5030901;28;20039;-60
2023/06/14 13:55:54;;;;;;;5.70;3.72;;;;;;;;;;5026442;28;20026;-60
2023/06/14 13:58:19;;;;;;;7.10;3.40;;;;;;;;;;5028610;28;20022;-60
2023/06/14 14:00:45;;;;;;;6.10;3.70;;;;;;;;;;5034986;28;20018;-60
2023/06/14 14:03:11;;;;;;;7.43;3.57;;;;;;;;;;5027176;28;20037;-60
2023/06/14 14:05:36;;;;;;;6.97;3.45;;;;;;;;;;5030239;28;20263;-60
2023/06/14 14:08:01;;;;;;;6.00;3.70;;;;;;;;;;5030115;28;20027;-60
2023/06/14 14:10:27;;;;;;;5.90;3.58;;;;;;;;;;5023979;28;20676;-60
2023/06/14 14:12:52;;;;;;;6.88;3.63;;;;;;;;;;5027056;28;20059;-60
2023/06/14 14:15:18;;;;;;;7.97;3.78;;;;;;;;;;5036260;28;20026;-60
2023/06/14 14:17:43;;;;;;;6.20;3.78;;;;;;;;;;5028536;28;20025;-60
2023/06/14 14:20:09;;;;;;;6.38;3.50;;;;;;;;;;5029748;28;20479;-60
2023/06/14 14:22:34;;;;;;;5.82;3.60;;;;;;;;;;5032931;28;20040;-60
2023/06/14 14:24:59;;;;;;;6.40;3.67;;;;;;;;;;5027831;28;20491;-60
2023/06/14 14:27:25;;;;;;;5.75;4.00;;;;;;;;;;5025891;28;20256;-60
2023/06/14 14:29:50;;;;;;;5.73;3.87;;;;;;;;;;5031879;28;20055;-61
2023/06/14 14:32:15;;;;;;;7.77;3.70;;;;;;;;;;5023652;28;20040;-61
2023/06/14 14:34:41;;;;;;;6.50;3.23;;;;;;;;;;5029030;28;20025;-60
2023/06/14 14:37:06;;;;;;;5.60;3.60;;;;;;;;;;5022043;28;20262;-60
2023/06/14 14:39:31;;;;;;;5.57;3.63;;;;;;;;;;5021804;28;20132;-61